sensor_id;sensor_type;location;lat;lon;timestamp;P1;durP1;ratioP1;P2;durP2;ratioP2
35562;SDS011;21665;40.108;18.302;2023-09-19T00:00:55;28.58;;;20.65;;
35562;SDS011;21665;40.108;18.302;2023-09-19T00:03:23;22.65;;;19.80;;
35562;SDS011;21665;40.108;18.302;2023-09-19T00:05:51;24.20;;;19.80;;
35562;SDS011;21665;40.108;18.302;2023-09-19T00:08:17;23.85;;;19.40;;
35562;SDS011;21665;40.108;18.302;2023-09-19T00:10:49;33.78;;;20.38;;
35562;SDS011;21665;40.108;18.302;2023-09-19T00:13:16;25.88;;;19.80;;
35562;SDS011;21665;40.108;18.302;2023-09-19T00:15:47;25.33;;;19.70;;
35562;SDS011;21665;40.108;18.302;2023-09-19T00:18:14;27.38;;;19.52;;
35562;SDS011;21665;40.108;18.302;2023-09-19T00:20:42;26.30;;;20.92;;
35562;SDS011;21665;40.108;18.302;2023-09-19T00:23:13;34.67;;;20.50;;
35562;SDS011;21665;40.108;18.302;2023-09-19T00:25:40;24.30;;;20.17;;
35562;SDS011;21665;40.108;18.302;2023-09-19T00:28:07;27.05;;;19.67;;
35562;SDS011;21665;40.108;18.302;2023-09-19T00:30:35;24.65;;;19.80;;
35562;SDS011;21665;40.108;18.302;2023-09-19T00:33:02;24.58;;;19.20;;
35562;SDS011;21665;40.108;18.302;2023-09-19T00:35:31;23.92;;;19.30;;
35562;SDS011;21665;40.108;18.302;2023-09-19T00:37:59;27.90;;;19.48;;
35562;SDS011;21665;40.108;18.302;2023-09-19T00:40:25;27.95;;;19.48;;
35562;SDS011;21665;40.108;18.302;2023-09-19T00:42:52;21.45;;;19.30;;
35562;SDS011;21665;40.108;18.302;2023-09-19T00:45:27;21.92;;;19.42;;
35562;SDS011;21665;40.108;18.302;2023-09-19T00:47:56;20.98;;;18.77;;
35562;SDS011;21665;40.108;18.302;2023-09-19T00:50:37;23.25;;;18.60;;
35562;SDS011;21665;40.108;18.302;2023-09-19T00:53:10;24.58;;;20.35;;
35562;SDS011;21665;40.108;18.302;2023-09-19T00:55:44;23.05;;;19.92;;
35562;SDS011;21665;40.108;18.302;2023-09-19T00:58:12;25.90;;;19.67;;
35562;SDS011;21665;40.108;18.302;2023-09-19T01:00:40;22.08;;;19.52;;
35562;SDS011;21665;40.108;18.302;2023-09-19T01:03:11;29.20;;;20.15;;
35562;SDS011;21665;40.108;18.302;2023-09-19T01:05:42;31.10;;;20.30;;
35562;SDS011;21665;40.108;18.302;2023-09-19T01:08:08;23.35;;;19.90;;
35562;SDS011;21665;40.108;18.302;2023-09-19T01:10:38;28.70;;;20.73;;
35562;SDS011;21665;40.108;18.302;2023-09-19T01:13:21;33.10;;;21.30;;
35562;SDS011;21665;40.108;18.302;2023-09-19T01:16:08;27.98;;;20.13;;
35562;SDS011;21665;40.108;18.302;2023-09-19T01:25:28;28.17;;;19.58;;
35562;SDS011;21665;40.108;18.302;2023-09-19T01:31:24;25.83;;;19.23;;
35562;SDS011;21665;40.108;18.302;2023-09-19T01:34:02;24.05;;;19.30;;
35562;SDS011;21665;40.108;18.302;2023-09-19T01:36:34;24.42;;;19.92;;
35562;SDS011;21665;40.108;18.302;2023-09-19T01:39:05;24.83;;;18.83;;
35562;SDS011;21665;40.108;18.302;2023-09-19T01:41:47;29.67;;;19.73;;
35562;SDS011;21665;40.108;18.302;2023-09-19T01:44:25;22.27;;;18.77;;
35562;SDS011;21665;40.108;18.302;2023-09-19T01:50:38;21.38;;;18.77;;
35562;SDS011;21665;40.108;18.302;2023-09-19T01:53:28;27.15;;;19.38;;
35562;SDS011;21665;40.108;18.302;2023-09-19T01:56:02;27.52;;;18.88;;
35562;SDS011;21665;40.108;18.302;2023-09-19T01:58:46;22.50;;;18.13;;
35562;SDS011;21665;40.108;18.302;2023-09-19T02:01:22;23.88;;;18.30;;
35562;SDS011;21665;40.108;18.302;2023-09-19T02:03:52;27.50;;;19.25;;
35562;SDS011;21665;40.108;18.302;2023-09-19T02:06:19;21.25;;;18.52;;
35562;SDS011;21665;40.108;18.302;2023-09-19T02:08:46;24.20;;;19.60;;
35562;SDS011;21665;40.108;18.302;2023-09-19T02:11:16;21.10;;;18.95;;
35562;SDS011;21665;40.108;18.302;2023-09-19T02:13:42;23.67;;;19.70;;
35562;SDS011;21665;40.108;18.302;2023-09-19T02:16:10;23.60;;;19.55;;
35562;SDS011;21665;40.108;18.302;2023-09-19T02:18:38;22.40;;;20.02;;
35562;SDS011;21665;40.108;18.302;2023-09-19T02:21:05;23.83;;;19.95;;
35562;SDS011;21665;40.108;18.302;2023-09-19T02:23:38;24.10;;;19.77;;
35562;SDS011;21665;40.108;18.302;2023-09-19T02:26:05;26.45;;;20.17;;
35562;SDS011;21665;40.108;18.302;2023-09-19T02:28:32;25.70;;;20.73;;
35562;SDS011;21665;40.108;18.302;2023-09-19T02:30:58;25.48;;;18.98;;
35562;SDS011;21665;40.108;18.302;2023-09-19T02:33:25;22.70;;;19.80;;
35562;SDS011;21665;40.108;18.302;2023-09-19T02:35:57;24.33;;;18.77;;
35562;SDS011;21665;40.108;18.302;2023-09-19T02:38:25;22.25;;;18.10;;
35562;SDS011;21665;40.108;18.302;2023-09-19T02:40:55;22.08;;;18.33;;
35562;SDS011;21665;40.108;18.302;2023-09-19T02:43:22;23.35;;;19.13;;
35562;SDS011;21665;40.108;18.302;2023-09-19T02:45:49;23.25;;;18.95;;
35562;SDS011;21665;40.108;18.302;2023-09-19T02:48:16;22.63;;;19.02;;
35562;SDS011;21665;40.108;18.302;2023-09-19T02:50:51;23.35;;;18.67;;
35562;SDS011;21665;40.108;18.302;2023-09-19T02:53:21;21.83;;;18.48;;
35562;SDS011;21665;40.108;18.302;2023-09-19T02:55:50;22.55;;;18.77;;
35562;SDS011;21665;40.108;18.302;2023-09-19T02:58:19;26.52;;;18.20;;
35562;SDS011;21665;40.108;18.302;2023-09-19T03:00:46;21.60;;;18.30;;
35562;SDS011;21665;40.108;18.302;2023-09-19T03:03:13;21.15;;;17.40;;
35562;SDS011;21665;40.108;18.302;2023-09-19T03:05:42;23.48;;;18.30;;
35562;SDS011;21665;40.108;18.302;2023-09-19T03:08:14;21.95;;;18.40;;
35562;SDS011;21665;40.108;18.302;2023-09-19T03:10:41;24.92;;;17.70;;
35562;SDS011;21665;40.108;18.302;2023-09-19T03:13:07;19.98;;;17.98;;
35562;SDS011;21665;40.108;18.302;2023-09-19T03:15:35;33.38;;;19.23;;
35562;SDS011;21665;40.108;18.302;2023-09-19T03:18:06;23.95;;;18.73;;
35562;SDS011;21665;40.108;18.302;2023-09-19T03:20:33;23.25;;;19.05;;
35562;SDS011;21665;40.108;18.302;2023-09-19T03:23:00;21.50;;;17.92;;
35562;SDS011;21665;40.108;18.302;2023-09-19T03:25:28;20.70;;;17.67;;
35562;SDS011;21665;40.108;18.302;2023-09-19T03:28:01;22.45;;;18.65;;
35562;SDS011;21665;40.108;18.302;2023-09-19T03:30:31;24.67;;;18.20;;
35562;SDS011;21665;40.108;18.302;2023-09-19T03:33:00;24.83;;;17.80;;
35562;SDS011;21665;40.108;18.302;2023-09-19T03:35:29;21.48;;;18.15;;
35562;SDS011;21665;40.108;18.302;2023-09-19T03:37:56;24.02;;;18.60;;
35562;SDS011;21665;40.108;18.302;2023-09-19T03:40:23;24.10;;;18.08;;
35562;SDS011;21665;40.108;18.302;2023-09-19T03:42:51;26.17;;;19.17;;
35562;SDS011;21665;40.108;18.302;2023-09-19T03:45:17;22.42;;;18.58;;
35562;SDS011;21665;40.108;18.302;2023-09-19T03:47:50;26.17;;;18.88;;
35562;SDS011;21665;40.108;18.302;2023-09-19T03:50:19;22.20;;;18.50;;
35562;SDS011;21665;40.108;18.302;2023-09-19T03:52:47;24.52;;;17.35;;
35562;SDS011;21665;40.108;18.302;2023-09-19T03:55:13;34.13;;;19.90;;
35562;SDS011;21665;40.108;18.302;2023-09-19T03:57:40;26.95;;;19.05;;
35562;SDS011;21665;40.108;18.302;2023-09-19T04:00:08;20.88;;;18.60;;
35562;SDS011;21665;40.108;18.302;2023-09-19T04:02:41;23.65;;;18.85;;
35562;SDS011;21665;40.108;18.302;2023-09-19T04:05:10;23.35;;;19.98;;
35562;SDS011;21665;40.108;18.302;2023-09-19T04:07:36;25.83;;;19.08;;
35562;SDS011;21665;40.108;18.302;2023-09-19T04:10:03;27.50;;;20.23;;
35562;SDS011;21665;40.108;18.302;2023-09-19T04:12:30;28.35;;;19.60;;
35562;SDS011;21665;40.108;18.302;2023-09-19T04:14:58;28.42;;;19.27;;
35562;SDS011;21665;40.108;18.302;2023-09-19T04:17:25;27.85;;;20.20;;
35562;SDS011;21665;40.108;18.302;2023-09-19T04:19:51;27.73;;;20.33;;
35562;SDS011;21665;40.108;18.302;2023-09-19T04:22:19;28.98;;;20.50;;
35562;SDS011;21665;40.108;18.302;2023-09-19T04:24:46;27.52;;;19.70;;
35562;SDS011;21665;40.108;18.302;2023-09-19T04:27:12;27.83;;;19.48;;
35562;SDS011;21665;40.108;18.302;2023-09-19T04:29:40;26.30;;;19.35;;
35562;SDS011;21665;40.108;18.302;2023-09-19T04:32:10;28.30;;;19.67;;
35562;SDS011;21665;40.108;18.302;2023-09-19T04:34:38;22.70;;;19.60;;
35562;SDS011;21665;40.108;18.302;2023-09-19T04:37:05;32.88;;;19.95;;
35562;SDS011;21665;40.108;18.302;2023-09-19T04:39:31;25.15;;;19.05;;
35562;SDS011;21665;40.108;18.302;2023-09-19T04:41:59;29.95;;;20.15;;
35562;SDS011;21665;40.108;18.302;2023-09-19T04:44:26;29.55;;;20.15;;
35562;SDS011;21665;40.108;18.302;2023-09-19T04:46:52;29.50;;;19.00;;
35562;SDS011;21665;40.108;18.302;2023-09-19T04:49:18;34.08;;;20.08;;
35562;SDS011;21665;40.108;18.302;2023-09-19T04:51:45;30.77;;;19.80;;
35562;SDS011;21665;40.108;18.302;2023-09-19T04:54:12;24.73;;;19.02;;
35562;SDS011;21665;40.108;18.302;2023-09-19T04:56:39;29.90;;;20.00;;
35562;SDS011;21665;40.108;18.302;2023-09-19T04:59:06;30.00;;;20.08;;
35562;SDS011;21665;40.108;18.302;2023-09-19T05:01:32;24.45;;;20.90;;
35562;SDS011;21665;40.108;18.302;2023-09-19T05:03:59;30.70;;;21.05;;
35562;SDS011;21665;40.108;18.302;2023-09-19T05:06:26;31.80;;;21.50;;
35562;SDS011;21665;40.108;18.302;2023-09-19T05:08:52;26.35;;;20.85;;
35562;SDS011;21665;40.108;18.302;2023-09-19T05:11:19;28.75;;;21.85;;
35562;SDS011;21665;40.108;18.302;2023-09-19T05:13:50;28.42;;;21.80;;
35562;SDS011;21665;40.108;18.302;2023-09-19T05:16:18;30.13;;;20.85;;
35562;SDS011;21665;40.108;18.302;2023-09-19T05:18:44;34.47;;;22.08;;
35562;SDS011;21665;40.108;18.302;2023-09-19T05:21:11;34.05;;;21.38;;
35562;SDS011;21665;40.108;18.302;2023-09-19T05:23:38;35.03;;;21.45;;
35562;SDS011;21665;40.108;18.302;2023-09-19T05:26:05;32.05;;;20.63;;
35562;SDS011;21665;40.108;18.302;2023-09-19T05:28:37;31.08;;;22.13;;
35562;SDS011;21665;40.108;18.302;2023-09-19T05:31:03;30.33;;;22.90;;
35562;SDS011;21665;40.108;18.302;2023-09-19T05:33:30;32.33;;;22.90;;
35562;SDS011;21665;40.108;18.302;2023-09-19T05:35:57;30.08;;;23.20;;
35562;SDS011;21665;40.108;18.302;2023-09-19T05:38:23;43.17;;;23.27;;
35562;SDS011;21665;40.108;18.302;2023-09-19T05:40:53;32.65;;;24.60;;
35562;SDS011;21665;40.108;18.302;2023-09-19T05:43:19;27.38;;;24.17;;
35562;SDS011;21665;40.108;18.302;2023-09-19T05:45:46;35.55;;;25.48;;
35562;SDS011;21665;40.108;18.302;2023-09-19T05:48:15;37.20;;;27.88;;
35562;SDS011;21665;40.108;18.302;2023-09-19T05:50:43;35.55;;;28.45;;
35562;SDS011;21665;40.108;18.302;2023-09-19T05:53:12;31.23;;;28.23;;
35562;SDS011;21665;40.108;18.302;2023-09-19T05:55:43;32.90;;;28.95;;
35562;SDS011;21665;40.108;18.302;2023-09-19T05:58:09;31.35;;;28.33;;
35562;SDS011;21665;40.108;18.302;2023-09-19T06:00:36;34.17;;;27.50;;
35562;SDS011;21665;40.108;18.302;2023-09-19T06:03:02;32.78;;;29.08;;
35562;SDS011;21665;40.108;18.302;2023-09-19T06:05:29;35.33;;;31.58;;
35562;SDS011;21665;40.108;18.302;2023-09-19T07:41:36;49.25;;;37.67;;
35562;SDS011;21665;40.108;18.302;2023-09-19T07:44:02;46.05;;;38.10;;
35562;SDS011;21665;40.108;18.302;2023-09-19T07:46:29;43.40;;;38.13;;
35562;SDS011;21665;40.108;18.302;2023-09-19T07:48:57;42.08;;;36.83;;
35562;SDS011;21665;40.108;18.302;2023-09-19T07:51:35;42.05;;;37.22;;
35562;SDS011;21665;40.108;18.302;2023-09-19T07:54:02;45.33;;;38.33;;
35562;SDS011;21665;40.108;18.302;2023-09-19T07:56:29;47.22;;;37.88;;
35562;SDS011;21665;40.108;18.302;2023-09-19T07:58:56;42.38;;;36.42;;
35562;SDS011;21665;40.108;18.302;2023-09-19T11:58:55;38.08;;;34.60;;
35562;SDS011;21665;40.108;18.302;2023-09-19T12:01:25;38.03;;;34.28;;
35562;SDS011;21665;40.108;18.302;2023-09-19T12:06:28;38.58;;;35.45;;
35562;SDS011;21665;40.108;18.302;2023-09-19T12:08:55;39.35;;;34.80;;
35562;SDS011;21665;40.108;18.302;2023-09-19T12:11:27;37.35;;;34.30;;
35562;SDS011;21665;40.108;18.302;2023-09-19T12:14:03;37.65;;;34.75;;
35562;SDS011;21665;40.108;18.302;2023-09-19T12:16:39;39.15;;;35.50;;
35562;SDS011;21665;40.108;18.302;2023-09-19T12:19:23;38.25;;;34.45;;
35562;SDS011;21665;40.108;18.302;2023-09-19T12:22:03;39.22;;;35.50;;
35562;SDS011;21665;40.108;18.302;2023-09-19T12:24:35;39.15;;;35.05;;
35562;SDS011;21665;40.108;18.302;2023-09-19T12:27:06;39.83;;;35.53;;
35562;SDS011;21665;40.108;18.302;2023-09-19T12:29:47;38.95;;;35.40;;
35562;SDS011;21665;40.108;18.302;2023-09-19T12:32:15;38.83;;;34.90;;
35562;SDS011;21665;40.108;18.302;2023-09-19T12:34:51;38.95;;;34.88;;
35562;SDS011;21665;40.108;18.302;2023-09-19T12:37:21;38.70;;;34.75;;
35562;SDS011;21665;40.108;18.302;2023-09-19T12:39:51;37.83;;;34.55;;
35562;SDS011;21665;40.108;18.302;2023-09-19T12:42:24;38.28;;;34.92;;
35562;SDS011;21665;40.108;18.302;2023-09-19T12:45:01;38.05;;;34.38;;
35562;SDS011;21665;40.108;18.302;2023-09-19T12:47:28;36.90;;;33.92;;
35562;SDS011;21665;40.108;18.302;2023-09-19T12:50:10;39.40;;;36.05;;
35562;SDS011;21665;40.108;18.302;2023-09-19T12:52:46;38.33;;;35.15;;
35562;SDS011;21665;40.108;18.302;2023-09-19T12:55:24;36.67;;;33.67;;
35562;SDS011;21665;40.108;18.302;2023-09-19T12:57:59;37.83;;;34.50;;
35562;SDS011;21665;40.108;18.302;2023-09-19T13:03:25;37.40;;;34.22;;
35562;SDS011;21665;40.108;18.302;2023-09-19T13:05:57;36.97;;;33.45;;
35562;SDS011;21665;40.108;18.302;2023-09-19T13:08:30;37.03;;;34.20;;
35562;SDS011;21665;40.108;18.302;2023-09-19T13:11:02;37.72;;;34.20;;
35562;SDS011;21665;40.108;18.302;2023-09-19T13:13:33;36.65;;;33.38;;
35562;SDS011;21665;40.108;18.302;2023-09-19T13:16:02;37.85;;;34.03;;
35562;SDS011;21665;40.108;18.302;2023-09-19T13:18:41;37.30;;;33.72;;
35562;SDS011;21665;40.108;18.302;2023-09-19T13:21:13;37.55;;;33.83;;
35562;SDS011;21665;40.108;18.302;2023-09-19T13:23:50;36.75;;;33.58;;
35562;SDS011;21665;40.108;18.302;2023-09-19T13:26:18;37.38;;;33.72;;
35562;SDS011;21665;40.108;18.302;2023-09-19T13:28:45;37.05;;;33.78;;
35562;SDS011;21665;40.108;18.302;2023-09-19T13:31:15;36.50;;;33.35;;
35562;SDS011;21665;40.108;18.302;2023-09-19T13:33:43;36.70;;;33.03;;
35562;SDS011;21665;40.108;18.302;2023-09-19T13:36:11;36.78;;;33.63;;
35562;SDS011;21665;40.108;18.302;2023-09-19T13:38:39;41.40;;;33.88;;
35562;SDS011;21665;40.108;18.302;2023-09-19T13:41:09;37.88;;;34.03;;
35562;SDS011;21665;40.108;18.302;2023-09-19T13:43:37;37.88;;;34.05;;
35562;SDS011;21665;40.108;18.302;2023-09-19T13:46:04;37.83;;;34.47;;
35562;SDS011;21665;40.108;18.302;2023-09-19T13:51:04;37.78;;;34.60;;
35562;SDS011;21665;40.108;18.302;2023-09-19T13:53:30;38.22;;;34.72;;
35562;SDS011;21665;40.108;18.302;2023-09-19T13:55:56;37.92;;;34.03;;
35562;SDS011;21665;40.108;18.302;2023-09-19T13:58:23;36.00;;;33.03;;
35562;SDS011;21665;40.108;18.302;2023-09-19T14:00:49;37.70;;;34.00;;
35562;SDS011;21665;40.108;18.302;2023-09-19T14:03:16;37.08;;;33.72;;
35562;SDS011;21665;40.108;18.302;2023-09-19T14:05:42;37.33;;;33.78;;
35562;SDS011;21665;40.108;18.302;2023-09-19T14:08:09;36.75;;;32.65;;
35562;SDS011;21665;40.108;18.302;2023-09-19T14:10:35;37.42;;;33.45;;
35562;SDS011;21665;40.108;18.302;2023-09-19T14:13:02;36.78;;;33.35;;
35562;SDS011;21665;40.108;18.302;2023-09-19T14:15:29;37.42;;;33.63;;
35562;SDS011;21665;40.108;18.302;2023-09-19T14:17:56;38.80;;;33.60;;
35562;SDS011;21665;40.108;18.302;2023-09-19T14:20:25;36.67;;;33.25;;
35562;SDS011;21665;40.108;18.302;2023-09-19T14:22:54;35.67;;;32.65;;
35562;SDS011;21665;40.108;18.302;2023-09-19T14:25:21;38.50;;;34.38;;
35562;SDS011;21665;40.108;18.302;2023-09-19T14:27:48;35.22;;;32.45;;
35562;SDS011;21665;40.108;18.302;2023-09-19T14:30:15;36.67;;;32.88;;
35562;SDS011;21665;40.108;18.302;2023-09-19T14:32:42;37.83;;;34.03;;
35562;SDS011;21665;40.108;18.302;2023-09-19T14:35:12;38.53;;;34.70;;
35562;SDS011;21665;40.108;18.302;2023-09-19T14:37:45;38.90;;;35.42;;
35562;SDS011;21665;40.108;18.302;2023-09-19T14:40:19;38.22;;;34.33;;
35562;SDS011;21665;40.108;18.302;2023-09-19T14:42:45;37.53;;;34.13;;
35562;SDS011;21665;40.108;18.302;2023-09-19T14:45:12;36.97;;;33.90;;
35562;SDS011;21665;40.108;18.302;2023-09-19T14:47:40;37.08;;;33.28;;
35562;SDS011;21665;40.108;18.302;2023-09-19T14:50:07;37.35;;;33.65;;
35562;SDS011;21665;40.108;18.302;2023-09-19T14:52:34;38.95;;;34.38;;
35562;SDS011;21665;40.108;18.302;2023-09-19T14:55:02;36.45;;;32.60;;
35562;SDS011;21665;40.108;18.302;2023-09-19T14:57:30;37.78;;;33.88;;
35562;SDS011;21665;40.108;18.302;2023-09-19T15:00:04;37.78;;;34.28;;
35562;SDS011;21665;40.108;18.302;2023-09-19T15:03:21;35.08;;;32.08;;
35562;SDS011;21665;40.108;18.302;2023-09-19T15:06:03;34.70;;;31.33;;
35562;SDS011;21665;40.108;18.302;2023-09-19T15:08:31;35.05;;;31.90;;
35562;SDS011;21665;40.108;18.302;2023-09-19T15:11:07;34.63;;;31.60;;
35562;SDS011;21665;40.108;18.302;2023-09-19T15:13:33;35.85;;;32.20;;
35562;SDS011;21665;40.108;18.302;2023-09-19T15:16:01;34.83;;;31.83;;
35562;SDS011;21665;40.108;18.302;2023-09-19T15:18:42;43.33;;;38.05;;
35562;SDS011;21665;40.108;18.302;2023-09-19T15:21:17;40.53;;;36.22;;
35562;SDS011;21665;40.108;18.302;2023-09-19T15:23:43;36.50;;;32.88;;
35562;SDS011;21665;40.108;18.302;2023-09-19T15:26:13;34.25;;;31.10;;
35562;SDS011;21665;40.108;18.302;2023-09-19T15:31:12;37.35;;;32.13;;
35562;SDS011;21665;40.108;18.302;2023-09-19T15:33:39;37.00;;;33.40;;
35562;SDS011;21665;40.108;18.302;2023-09-19T15:36:06;35.58;;;31.80;;
35562;SDS011;21665;40.108;18.302;2023-09-19T15:41:31;36.58;;;31.35;;
35562;SDS011;21665;40.108;18.302;2023-09-19T15:44:00;37.38;;;31.52;;
35562;SDS011;21665;40.108;18.302;2023-09-19T15:46:29;33.92;;;30.52;;
35562;SDS011;21665;40.108;18.302;2023-09-19T15:49:00;33.50;;;30.38;;
35562;SDS011;21665;40.108;18.302;2023-09-19T15:51:27;34.13;;;30.75;;
35562;SDS011;21665;40.108;18.302;2023-09-19T15:53:55;34.20;;;30.20;;
35562;SDS011;21665;40.108;18.302;2023-09-19T15:56:22;35.22;;;31.02;;
35562;SDS011;21665;40.108;18.302;2023-09-19T15:58:50;33.58;;;30.55;;
35562;SDS011;21665;40.108;18.302;2023-09-19T16:01:20;31.77;;;29.20;;
35562;SDS011;21665;40.108;18.302;2023-09-19T16:03:48;32.50;;;29.08;;
35562;SDS011;21665;40.108;18.302;2023-09-19T16:06:18;32.22;;;29.48;;
35562;SDS011;21665;40.108;18.302;2023-09-19T16:08:51;32.20;;;28.98;;
35562;SDS011;21665;40.108;18.302;2023-09-19T16:11:21;31.75;;;28.85;;
35562;SDS011;21665;40.108;18.302;2023-09-19T16:13:48;31.38;;;28.40;;
35562;SDS011;21665;40.108;18.302;2023-09-19T16:16:16;31.10;;;27.98;;
35562;SDS011;21665;40.108;18.302;2023-09-19T16:18:55;30.67;;;27.20;;
35562;SDS011;21665;40.108;18.302;2023-09-19T16:21:25;29.60;;;26.65;;
35562;SDS011;21665;40.108;18.302;2023-09-19T16:23:57;29.45;;;26.80;;
35562;SDS011;21665;40.108;18.302;2023-09-19T16:26:26;29.92;;;26.00;;
35562;SDS011;21665;40.108;18.302;2023-09-19T16:28:54;30.27;;;27.05;;
35562;SDS011;21665;40.108;18.302;2023-09-19T16:37:56;31.17;;;28.08;;
35562;SDS011;21665;40.108;18.302;2023-09-19T16:40:22;31.88;;;28.52;;
35562;SDS011;21665;40.108;18.302;2023-09-19T16:42:49;31.00;;;27.95;;
35562;SDS011;21665;40.108;18.302;2023-09-19T16:45:16;31.25;;;27.85;;
35562;SDS011;21665;40.108;18.302;2023-09-19T16:47:45;31.88;;;27.35;;
35562;SDS011;21665;40.108;18.302;2023-09-19T16:50:15;30.17;;;27.05;;
35562;SDS011;21665;40.108;18.302;2023-09-19T16:52:44;29.95;;;27.02;;
35562;SDS011;21665;40.108;18.302;2023-09-19T16:55:14;31.23;;;28.33;;
35562;SDS011;21665;40.108;18.302;2023-09-19T16:57:43;30.95;;;27.25;;
35562;SDS011;21665;40.108;18.302;2023-09-19T17:00:10;30.85;;;27.75;;
35562;SDS011;21665;40.108;18.302;2023-09-19T17:02:45;33.67;;;27.25;;
35562;SDS011;21665;40.108;18.302;2023-09-19T17:05:13;31.67;;;28.40;;
35562;SDS011;21665;40.108;18.302;2023-09-19T17:07:41;34.00;;;27.80;;
35562;SDS011;21665;40.108;18.302;2023-09-19T17:10:08;30.80;;;27.88;;
35562;SDS011;21665;40.108;18.302;2023-09-19T19:23:23;23.88;;;19.90;;
35562;SDS011;21665;40.108;18.302;2023-09-19T19:25:50;22.77;;;19.38;;
35562;SDS011;21665;40.108;18.302;2023-09-19T19:28:19;24.33;;;20.05;;
35562;SDS011;21665;40.108;18.302;2023-09-19T19:30:46;22.15;;;19.98;;
35562;SDS011;21665;40.108;18.302;2023-09-19T19:33:13;23.63;;;20.83;;
35562;SDS011;21665;40.108;18.302;2023-09-19T19:35:40;23.38;;;20.55;;
35562;SDS011;21665;40.108;18.302;2023-09-19T19:38:10;27.00;;;20.35;;
35562;SDS011;21665;40.108;18.302;2023-09-19T19:40:37;35.53;;;20.63;;
35562;SDS011;21665;40.108;18.302;2023-09-19T19:43:04;28.42;;;20.77;;
35562;SDS011;21665;40.108;18.302;2023-09-19T19:45:34;24.45;;;20.33;;
35562;SDS011;21665;40.108;18.302;2023-09-19T19:48:00;28.05;;;20.88;;
35562;SDS011;21665;40.108;18.302;2023-09-19T19:50:30;28.20;;;20.98;;
35562;SDS011;21665;40.108;18.302;2023-09-19T19:53:04;24.20;;;20.70;;
35562;SDS011;21665;40.108;18.302;2023-09-19T19:55:33;24.35;;;20.73;;
35562;SDS011;21665;40.108;18.302;2023-09-19T19:58:00;22.92;;;20.52;;
35562;SDS011;21665;40.108;18.302;2023-09-19T20:00:26;24.33;;;20.70;;
35562;SDS011;21665;40.108;18.302;2023-09-19T20:02:57;27.70;;;21.00;;
35562;SDS011;21665;40.108;18.302;2023-09-19T20:05:23;28.00;;;20.73;;
35562;SDS011;21665;40.108;18.302;2023-09-19T20:07:51;23.30;;;20.75;;
35562;SDS011;21665;40.108;18.302;2023-09-19T20:10:18;24.58;;;20.17;;
35562;SDS011;21665;40.108;18.302;2023-09-19T20:12:49;28.95;;;20.75;;
35562;SDS011;21665;40.108;18.302;2023-09-19T20:15:15;25.13;;;21.02;;
35562;SDS011;21665;40.108;18.302;2023-09-19T20:17:42;24.60;;;20.60;;
35562;SDS011;21665;40.108;18.302;2023-09-19T20:20:11;31.33;;;20.17;;
35562;SDS011;21665;40.108;18.302;2023-09-19T20:22:44;31.75;;;20.35;;
35562;SDS011;21665;40.108;18.302;2023-09-19T20:25:11;24.75;;;19.77;;
35562;SDS011;21665;40.108;18.302;2023-09-19T20:27:41;22.38;;;19.40;;
35562;SDS011;21665;40.108;18.302;2023-09-19T20:30:09;22.08;;;19.75;;
35562;SDS011;21665;40.108;18.302;2023-09-19T20:32:38;26.80;;;19.55;;
35562;SDS011;21665;40.108;18.302;2023-09-19T20:35:06;25.70;;;19.55;;
35562;SDS011;21665;40.108;18.302;2023-09-19T20:37:34;23.25;;;20.65;;
35562;SDS011;21665;40.108;18.302;2023-09-19T20:40:03;26.67;;;20.13;;
35562;SDS011;21665;40.108;18.302;2023-09-19T20:42:39;27.77;;;20.98;;
35562;SDS011;21665;40.108;18.302;2023-09-19T20:45:06;29.60;;;20.27;;
35562;SDS011;21665;40.108;18.302;2023-09-19T20:47:38;31.45;;;20.83;;
35562;SDS011;21665;40.108;18.302;2023-09-19T20:50:08;28.38;;;19.98;;
35562;SDS011;21665;40.108;18.302;2023-09-19T20:52:35;21.98;;;19.63;;
35562;SDS011;21665;40.108;18.302;2023-09-19T20:55:11;25.52;;;19.13;;
35562;SDS011;21665;40.108;18.302;2023-09-19T20:57:38;23.45;;;20.27;;
35562;SDS011;21665;40.108;18.302;2023-09-19T21:00:06;24.55;;;19.73;;
35562;SDS011;21665;40.108;18.302;2023-09-19T21:02:35;24.20;;;19.30;;
35562;SDS011;21665;40.108;18.302;2023-09-19T21:05:03;27.40;;;19.98;;
35562;SDS011;21665;40.108;18.302;2023-09-19T21:07:30;28.92;;;18.85;;
35562;SDS011;21665;40.108;18.302;2023-09-19T21:09:57;26.95;;;20.27;;
35562;SDS011;21665;40.108;18.302;2023-09-19T21:12:25;25.75;;;19.70;;
35562;SDS011;21665;40.108;18.302;2023-09-19T21:14:52;25.95;;;19.77;;
35562;SDS011;21665;40.108;18.302;2023-09-19T21:17:25;28.70;;;19.50;;
35562;SDS011;21665;40.108;18.302;2023-09-19T21:19:52;23.40;;;19.33;;
35562;SDS011;21665;40.108;18.302;2023-09-19T21:22:18;22.75;;;18.83;;
35562;SDS011;21665;40.108;18.302;2023-09-19T21:24:47;31.65;;;20.48;;
35562;SDS011;21665;40.108;18.302;2023-09-19T21:27:14;26.58;;;19.33;;
35562;SDS011;21665;40.108;18.302;2023-09-19T21:29:45;24.77;;;19.25;;
35562;SDS011;21665;40.108;18.302;2023-09-19T21:32:11;28.27;;;19.38;;
35562;SDS011;21665;40.108;18.302;2023-09-19T21:34:41;23.13;;;18.48;;
35562;SDS011;21665;40.108;18.302;2023-09-19T21:37:09;23.08;;;18.23;;
35562;SDS011;21665;40.108;18.302;2023-09-19T21:39:40;31.90;;;18.83;;
35562;SDS011;21665;40.108;18.302;2023-09-19T21:42:07;25.98;;;18.92;;
35562;SDS011;21665;40.108;18.302;2023-09-19T21:44:33;25.77;;;19.02;;
35562;SDS011;21665;40.108;18.302;2023-09-19T21:47:00;22.52;;;18.17;;
35562;SDS011;21665;40.108;18.302;2023-09-19T21:49:28;28.80;;;18.70;;
35562;SDS011;21665;40.108;18.302;2023-09-19T22:16:14;25.02;;;18.38;;
35562;SDS011;21665;40.108;18.302;2023-09-19T22:18:42;23.60;;;18.35;;
35562;SDS011;21665;40.108;18.302;2023-09-19T22:21:13;23.42;;;17.92;;
35562;SDS011;21665;40.108;18.302;2023-09-19T22:23:48;21.98;;;18.20;;
35562;SDS011;21665;40.108;18.302;2023-09-19T22:26:21;26.20;;;18.33;;
35562;SDS011;21665;40.108;18.302;2023-09-19T22:28:54;27.73;;;18.08;;
35562;SDS011;21665;40.108;18.302;2023-09-19T22:31:23;23.38;;;18.90;;
35562;SDS011;21665;40.108;18.302;2023-09-19T22:34:02;25.70;;;19.23;;
35562;SDS011;21665;40.108;18.302;2023-09-19T22:36:35;21.15;;;18.30;;
35562;SDS011;21665;40.108;18.302;2023-09-19T22:39:08;27.10;;;18.45;;
35562;SDS011;21665;40.108;18.302;2023-09-19T22:41:55;29.50;;;18.45;;
35562;SDS011;21665;40.108;18.302;2023-09-19T22:44:28;26.83;;;18.23;;
35562;SDS011;21665;40.108;18.302;2023-09-19T22:46:56;25.13;;;17.83;;
35562;SDS011;21665;40.108;18.302;2023-09-19T22:49:23;21.17;;;18.15;;
35562;SDS011;21665;40.108;18.302;2023-09-19T22:51:52;23.63;;;17.83;;
35562;SDS011;21665;40.108;18.302;2023-09-19T22:54:30;25.25;;;17.33;;
35562;SDS011;21665;40.108;18.302;2023-09-19T22:57:02;29.92;;;17.95;;
35562;SDS011;21665;40.108;18.302;2023-09-19T22:59:30;28.00;;;17.92;;
35562;SDS011;21665;40.108;18.302;2023-09-19T23:02:00;26.10;;;19.17;;